Time;durP1;ratioP1;P1;durP2;ratioP2;P2;SDS_P1;SDS_P2;PMS_P1;PMS_P2;Temp;Humidity;BMP_temperature;BMP_pressure;BME280_temperature;BME280_humidity;BME280_pressure;Samples;Min_cycle;Max_cycle;Signal;HPM_P1;HPM_P2
2023/01/26 00:01:27;;;;;;;40.80;16.23;;;1.00;99.90;;;;;;5107047;27;20044;-90
2023/01/26 00:03:53;;;;;;;40.33;15.20;;;0.90;99.90;;;;;;5103395;27;20037;-90
2023/01/26 00:06:19;;;;;;;42.25;15.52;;;1.00;99.90;;;;;;5104754;27;20034;-90
2023/01/26 00:08:53;;;;;;;42.25;16.73;;;0.80;99.90;;;;;;5107331;27;20090;-90
2023/01/26 00:11:29;;;;;;;38.63;15.75;;;1.00;99.90;;;;;;5122986;27;20182;-91
2023/01/26 00:13:59;;;;;;;39.35;15.88;;;0.80;99.90;;;;;;5103744;27;20041;-91
2023/01/26 00:16:26;;;;;;;38.13;14.70;;;0.80;99.90;;;;;;5101184;27;20443;-90
2023/01/26 00:18:52;;;;;;;39.13;16.08;;;0.90;99.90;;;;;;5119442;27;20123;-91
2023/01/26 00:21:20;;;;;;;42.50;15.45;;;1.00;99.90;;;;;;5123294;27;20050;-90
2023/01/26 00:23:47;;;;;;;32.90;14.43;;;0.90;99.90;;;;;;5104308;27;20349;-90
2023/01/26 00:26:16;;;;;;;39.20;15.10;;;0.80;99.90;;;;;;5105408;27;20043;-90
2023/01/26 00:28:42;;;;;;;36.80;14.63;;;0.70;99.90;;;;;;5105698;27;20402;-91
2023/01/26 00:31:12;;;;;;;37.10;15.35;;;0.80;99.90;;;;;;5103684;27;20514;-90
2023/01/26 00:33:38;;;;;;;40.22;15.23;;;0.90;99.90;;;;;;5104812;27;20387;-91
2023/01/26 00:36:04;;;;;;;39.80;14.57;;;0.90;99.90;;;;;;5106767;27;20039;-91
2023/01/26 00:38:30;;;;;;;42.25;15.25;;;0.80;99.90;;;;;;5107346;27;20058;-91
2023/01/26 00:40:56;;;;;;;37.40;14.65;;;0.90;99.90;;;;;;5086880;28;20039;-90
2023/01/26 00:43:22;;;;;;;44.85;16.40;;;0.80;99.90;;;;;;5083951;28;20042;-91
2023/01/26 00:45:48;;;;;;;45.42;16.65;;;0.90;99.90;;;;;;5084068;28;20197;-91
2023/01/26 00:48:14;;;;;;;41.80;15.38;;;0.90;99.90;;;;;;5103334;27;20042;-92
2023/01/26 00:50:39;;;;;;;48.28;17.00;;;0.80;99.90;;;;;;5086903;28;20043;-90
2023/01/26 00:53:05;;;;;;;45.80;16.27;;;0.90;99.90;;;;;;5086316;28;20035;-91
2023/01/26 00:55:31;;;;;;;44.30;16.25;;;0.80;99.90;;;;;;5086531;28;20066;-92
2023/01/26 00:58:01;;;;;;;44.00;15.70;;;0.80;99.90;;;;;;5102648;28;20089;-91
2023/01/26 01:00:27;;;;;;;41.22;15.82;;;0.90;99.90;;;;;;5100770;27;20513;-91
2023/01/26 01:02:55;;;;;;;40.72;16.35;;;1.00;99.90;;;;;;5085906;27;20035;-90
2023/01/26 01:05:22;;;;;;;44.88;16.50;;;0.90;99.90;;;;;;5098225;27;20047;-91
2023/01/26 01:07:48;;;;;;;42.47;14.98;;;1.10;99.90;;;;;;5084455;28;20130;-91
2023/01/26 01:10:14;;;;;;;40.33;14.70;;;0.80;99.90;;;;;;5083925;28;20836;-90
2023/01/26 01:12:39;;;;;;;43.33;16.67;;;0.90;99.90;;;;;;5083642;28;20039;-91
2023/01/26 01:15:06;;;;;;;39.38;15.77;;;0.90;99.90;;;;;;5099150;27;20078;-91
2023/01/26 01:17:32;;;;;;;43.88;15.00;;;0.90;99.90;;;;;;5101626;27;20871;-91
2023/01/26 01:20:02;;;;;;;42.53;14.85;;;1.10;99.90;;;;;;5085217;27;20093;-91
2023/01/26 01:22:28;;;;;;;38.60;14.77;;;1.10;99.90;;;;;;5105025;27;20134;-92
2023/01/26 01:24:54;;;;;;;40.33;14.32;;;1.10;99.90;;;;;;5087554;28;20119;-90
2023/01/26 01:27:19;;;;;;;40.88;15.95;;;1.00;99.90;;;;;;5084726;28;20135;-91
2023/01/26 01:29:45;;;;;;;42.00;15.93;;;0.90;99.90;;;;;;5081185;28;20046;-91
2023/01/26 01:32:11;;;;;;;41.47;16.27;;;0.90;99.90;;;;;;5086242;28;20035;-91
2023/01/26 01:34:39;;;;;;;42.83;14.75;;;1.00;99.90;;;;;;5086794;28;20460;-91
2023/01/26 01:37:05;;;;;;;45.10;14.63;;;1.20;99.90;;;;;;5087646;27;20036;-91
2023/01/26 01:39:31;;;;;;;40.72;14.65;;;1.10;99.90;;;;;;5103838;27;20541;-92
2023/01/26 01:41:56;;;;;;;42.10;15.20;;;1.20;99.90;;;;;;5122447;27;20035;-91
2023/01/26 01:44:24;;;;;;;40.85;15.30;;;1.20;99.90;;;;;;5121662;27;20031;-92
2023/01/26 01:47:22;;;;;;;36.78;14.18;;;1.00;99.90;;;;;;5102736;27;20031;-91
2023/01/26 01:49:51;;;;;;;39.92;14.80;;;1.20;99.90;;;;;;5099068;27;20556;-92
2023/01/26 01:52:24;;;;;;;38.13;14.50;;;1.20;99.90;;;;;;5102967;27;20583;-91
2023/01/26 01:55:00;;;;;;;40.83;14.43;;;1.20;99.90;;;;;;5122188;27;20489;-92
2023/01/26 01:57:31;;;;;;;37.58;14.05;;;1.20;99.90;;;;;;5100676;27;20085;-92
2023/01/26 02:00:06;;;;;;;40.30;14.63;;;1.10;99.90;;;;;;5099301;27;20042;-91
2023/01/26 02:02:33;;;;;;;35.25;13.57;;;1.10;99.90;;;;;;5119572;27;20039;-90
2023/01/26 02:05:06;;;;;;;41.75;14.40;;;1.30;99.90;;;;;;5104726;27;20030;-91
2023/01/26 02:07:32;;;;;;;36.47;12.88;;;1.20;99.90;;;;;;5101123;27;20031;-92
2023/01/26 02:10:17;;;;;;;28.65;11.55;;;1.20;99.90;;;;;;5100152;27;20110;-90
2023/01/26 02:12:43;;;;;;;34.08;12.70;;;1.20;99.90;;;;;;5124415;27;20038;-91
2023/01/26 02:15:10;;;;;;;37.15;13.85;;;1.10;99.90;;;;;;5102433;27;20035;-92
2023/01/26 02:17:36;;;;;;;38.13;13.30;;;1.10;99.90;;;;;;5100702;27;20486;-91
2023/01/26 02:20:17;;;;;;;38.40;14.00;;;1.10;99.90;;;;;;5125609;27;20042;-91
2023/01/26 02:23:26;;;;;;;34.92;13.40;;;1.10;99.90;;;;;;5109979;27;20114;-91
2023/01/26 02:25:51;;;;;;;35.05;13.90;;;1.10;99.90;;;;;;5104508;27;20035;-91
2023/01/26 02:28:20;;;;;;;35.05;12.82;;;1.30;99.90;;;;;;5107392;27;20452;-91
2023/01/26 02:30:46;;;;;;;39.53;13.43;;;1.20;99.90;;;;;;5122333;27;20035;-91
2023/01/26 02:33:23;;;;;;;39.28;13.25;;;1.30;99.90;;;;;;5107577;27;20621;-92
2023/01/26 02:35:49;;;;;;;41.08;13.85;;;1.30;99.90;;;;;;5106296;27;20042;-91
2023/01/26 02:38:17;;;;;;;33.67;13.82;;;1.20;99.90;;;;;;5107706;27;20051;-92
2023/01/26 02:40:52;;;;;;;42.45;14.00;;;1.20;99.90;;;;;;5105011;27;20034;-92
2023/01/26 02:43:21;;;;;;;35.72;13.43;;;1.40;99.90;;;;;;5102797;27;20038;-91
2023/01/26 02:45:46;;;;;;;37.30;13.60;;;1.40;99.90;;;;;;5103581;27;20034;-92
2023/01/26 02:48:12;;;;;;;40.15;14.73;;;1.40;99.90;;;;;;5104059;27;20043;-92
2023/01/26 02:50:38;;;;;;;35.10;12.45;;;1.30;99.90;;;;;;5105541;27;20046;-92
2023/01/26 02:53:03;;;;;;;30.63;12.45;;;1.50;99.90;;;;;;5108845;27;20174;-92
2023/01/26 02:55:30;;;;;;;36.50;13.73;;;1.20;99.90;;;;;;5101873;27;20168;-91
2023/01/26 02:58:02;;;;;;;32.40;12.98;;;1.50;99.90;;;;;;5104387;27;20123;-91
2023/01/26 03:00:36;;;;;;;38.72;13.98;;;1.30;99.90;;;;;;5104172;27;20035;-92
2023/01/26 03:03:06;;;;;;;35.15;13.57;;;1.30;99.90;;;;;;5117955;27;20030;-92
2023/01/26 03:05:32;;;;;;;41.55;14.90;;;1.50;99.90;;;;;;5125440;27;20497;-91
2023/01/26 03:07:58;;;;;;;41.53;14.27;;;1.50;99.90;;;;;;5119689;27;20043;-92
2023/01/26 03:10:25;;;;;;;35.83;13.57;;;1.30;99.90;;;;;;5104843;27;20037;-92
2023/01/26 03:12:52;;;;;;;38.95;13.70;;;1.40;99.90;;;;;;5125145;27;20038;-92
2023/01/26 03:29:01;;;;;;;38.90;14.60;;;1.60;99.90;;;;;;5121641;27;20042;-92
2023/01/26 03:31:27;;;;;;;40.72;14.07;;;1.60;99.90;;;;;;5105295;27;20164;-92
2023/01/26 03:33:53;;;;;;;40.58;14.77;;;1.50;99.90;;;;;;5121145;27;20291;-92
2023/01/26 03:36:18;;;;;;;38.55;12.98;;;1.60;99.90;;;;;;5106312;27;20059;-92
2023/01/26 03:38:44;;;;;;;36.03;13.30;;;1.60;99.90;;;;;;5105502;27;20431;-92
2023/01/26 03:57:37;;;;;;;35.10;13.43;;;1.50;99.90;;;;;;5116461;27;20187;-91
2023/01/26 04:00:05;;;;;;;34.58;13.45;;;1.50;99.90;;;;;;5103992;27;20102;-92
2023/01/26 04:08:25;;;;;;;31.60;12.68;;;1.70;99.90;;;;;;5123678;27;20049;-92
2023/01/26 04:10:53;;;;;;;35.20;12.82;;;1.50;99.90;;;;;;5119979;27;20054;-92
2023/01/26 04:21:37;;;;;;;40.50;14.20;;;1.70;99.90;;;;;;5120018;27;20416;-92
2023/01/26 04:24:14;;;;;;;32.10;13.27;;;1.60;99.90;;;;;;5109158;27;20034;-92
2023/01/26 04:26:41;;;;;;;33.95;13.32;;;1.60;99.90;;;;;;5105734;27;20026;-91
2023/01/26 04:29:09;;;;;;;36.40;12.98;;;1.70;99.90;;;;;;5104061;27;20091;-92
2023/01/26 04:31:36;;;;;;;33.35;12.75;;;1.50;99.90;;;;;;5098646;27;20043;-92
2023/01/26 04:34:03;;;;;;;35.00;13.27;;;1.60;99.90;;;;;;5105341;27;20031;-92
2023/01/26 04:36:32;;;;;;;43.30;14.20;;;1.60;99.90;;;;;;5098436;27;20035;-92
2023/01/26 04:38:57;;;;;;;41.30;14.57;;;1.60;99.90;;;;;;5117994;27;20143;-92
2023/01/26 04:41:23;;;;;;;38.33;13.68;;;1.80;99.90;;;;;;5101666;27;20473;-92
2023/01/26 04:43:49;;;;;;;34.15;13.23;;;1.70;99.90;;;;;;5099076;27;20310;-91
2023/01/26 04:46:16;;;;;;;39.63;14.90;;;1.60;99.90;;;;;;5099214;27;20039;-92
2023/01/26 04:48:42;;;;;;;38.38;14.00;;;1.80;99.90;;;;;;5098956;27;20338;-92
2023/01/26 04:51:13;;;;;;;41.22;14.75;;;1.60;99.90;;;;;;5118594;27;20411;-92
2023/01/26 04:53:39;;;;;;;42.17;15.02;;;1.80;99.90;;;;;;5099769;27;20085;-92
2023/01/26 04:56:05;;;;;;;41.55;13.63;;;1.70;99.90;;;;;;5099946;27;20031;-92
2023/01/26 04:58:34;;;;;;;34.53;13.95;;;1.70;99.90;;;;;;5096616;28;20039;-92
2023/01/26 05:01:00;;;;;;;38.47;14.00;;;1.80;99.90;;;;;;5100737;27;20041;-92
2023/01/26 05:03:26;;;;;;;38.47;14.43;;;1.90;99.90;;;;;;5098562;27;20090;-92
2023/01/26 05:05:53;;;;;;;34.15;13.80;;;1.80;99.90;;;;;;5102690;27;20067;-91
2023/01/26 05:08:21;;;;;;;32.67;14.20;;;1.90;99.90;;;;;;5104108;27;20122;-92
2023/01/26 05:10:47;;;;;;;39.65;14.23;;;1.80;99.90;;;;;;5100326;27;20121;-92
2023/01/26 05:13:12;;;;;;;39.05;14.18;;;1.90;99.90;;;;;;5098480;27;20107;-92
2023/01/26 05:15:38;;;;;;;40.72;14.55;;;1.70;99.90;;;;;;5096379;27;20386;-91
2023/01/26 05:18:05;;;;;;;39.80;14.45;;;1.90;99.90;;;;;;5098666;27;20135;-91
2023/01/26 05:20:32;;;;;;;35.90;14.25;;;1.90;99.90;;;;;;5099502;27;20031;-92
2023/01/26 05:22:58;;;;;;;57.83;15.93;;;1.80;99.90;;;;;;5095953;27;20041;-91
2023/01/26 05:25:24;;;;;;;39.80;14.80;;;2.00;99.90;;;;;;5102352;27;20042;-92
2023/01/26 05:27:51;;;;;;;47.28;14.23;;;1.80;99.90;;;;;;5097484;27;20043;-92
2023/01/26 05:30:17;;;;;;;49.60;15.20;;;2.00;99.90;;;;;;5099505;27;20039;-92
2023/01/26 05:32:43;;;;;;;48.38;15.45;;;1.80;99.90;;;;;;5098728;28;20438;-92
2023/01/26 05:35:12;;;;;;;48.50;15.65;;;2.00;99.90;;;;;;5101599;27;20045;-92
2023/01/26 05:37:38;;;;;;;51.75;16.02;;;1.90;99.90;;;;;;5108979;27;20062;-92
2023/01/26 05:40:04;;;;;;;56.05;16.00;;;2.00;99.90;;;;;;5075734;28;20036;-92
2023/01/26 05:42:30;;;;;;;45.90;15.57;;;2.00;99.90;;;;;;5080499;28;20036;-92
2023/01/26 05:44:55;;;;;;;45.45;14.75;;;1.80;99.90;;;;;;5095759;28;20108;-92
2023/01/26 05:47:21;;;;;;;44.97;14.13;;;2.00;99.90;;;;;;5078024;28;20135;-92
2023/01/26 05:49:47;;;;;;;43.30;14.48;;;2.10;99.90;;;;;;5079567;28;20040;-91
2023/01/26 05:52:16;;;;;;;43.85;14.40;;;1.90;99.90;;;;;;5079422;28;20608;-92
2023/01/26 05:54:42;;;;;;;47.40;14.68;;;2.00;99.90;;;;;;5076822;28;20138;-91
2023/01/26 05:57:08;;;;;;;52.10;15.63;;;1.90;99.90;;;;;;5078917;28;20166;-91
2023/01/26 05:59:34;;;;;;;55.40;14.65;;;1.90;99.90;;;;;;5085019;28;20032;-92
2023/01/26 06:02:00;;;;;;;44.80;14.88;;;2.00;99.90;;;;;;5078606;28;20051;-92
2023/01/26 06:04:27;;;;;;;53.15;15.77;;;1.90;99.90;;;;;;5081918;28;20036;-92
2023/01/26 06:06:54;;;;;;;41.47;14.57;;;2.00;99.90;;;;;;5076725;28;20152;-90
2023/01/26 06:09:20;;;;;;;61.55;17.27;;;2.10;99.90;;;;;;5081384;28;20047;-92
2023/01/26 06:11:46;;;;;;;46.13;14.90;;;2.10;99.90;;;;;;5097880;28;20253;-91
2023/01/26 06:14:12;;;;;;;54.70;15.90;;;2.10;99.90;;;;;;5077865;28;20486;-92
2023/01/26 06:16:37;;;;;;;59.40;16.95;;;2.10;99.90;;;;;;5080974;28;20253;-91
2023/01/26 06:19:03;;;;;;;53.47;15.88;;;2.10;99.90;;;;;;5080472;28;20135;-92
2023/01/26 06:21:30;;;;;;;59.97;17.35;;;2.20;99.90;;;;;;5083593;28;20063;-91
2023/01/26 06:23:59;;;;;;;49.45;15.68;;;2.30;99.90;;;;;;5097456;28;20039;-92
2023/01/26 06:26:25;;;;;;;58.35;16.60;;;2.10;99.90;;;;;;5081019;28;20039;-92
2023/01/26 06:28:56;;;;;;;49.47;15.70;;;2.10;99.90;;;;;;5082782;28;20042;-91
2023/01/26 06:31:31;;;;;;;51.95;14.82;;;2.00;99.90;;;;;;5081514;28;20068;-91
2023/01/26 06:33:57;;;;;;;54.88;16.13;;;2.00;99.90;;;;;;5084309;28;21664;-91
2023/01/26 06:36:22;;;;;;;51.92;15.13;;;1.90;99.90;;;;;;5078554;28;20295;-90
2023/01/26 06:38:51;;;;;;;48.78;15.20;;;2.00;99.90;;;;;;5113433;27;20103;-91
2023/01/26 06:41:20;;;;;;;49.58;15.60;;;1.90;99.90;;;;;;5119112;27;20035;-91
2023/01/26 06:43:48;;;;;;;49.03;16.52;;;1.80;99.90;;;;;;5102368;27;20097;-91
2023/01/26 06:46:15;;;;;;;56.30;20.38;;;1.90;99.90;;;;;;5101104;27;20827;-92
2023/01/26 06:48:40;;;;;;;50.58;16.42;;;1.90;99.90;;;;;;5098632;27;20509;-91
2023/01/26 06:51:15;;;;;;;61.35;17.48;;;1.90;99.90;;;;;;5122954;27;20043;-91
2023/01/26 06:53:54;;;;;;;60.10;17.05;;;1.90;99.90;;;;;;5101110;27;20688;-92
2023/01/26 06:56:21;;;;;;;55.97;16.23;;;1.80;99.90;;;;;;5101760;27;20428;-91
2023/01/26 06:58:47;;;;;;;57.35;16.77;;;1.90;99.90;;;;;;5124650;27;20035;-91
2023/01/26 07:01:21;;;;;;;71.07;17.05;;;1.80;99.90;;;;;;5130443;27;20043;-90
2023/01/26 07:03:48;;;;;;;60.65;17.60;;;1.80;99.90;;;;;;5111079;27;20035;-90
2023/01/26 07:06:14;;;;;;;55.72;16.80;;;1.90;99.90;;;;;;5105201;27;20191;-91
2023/01/26 07:08:40;;;;;;;61.90;16.48;;;1.80;99.90;;;;;;5102985;27;20042;-90
2023/01/26 07:11:07;;;;;;;75.57;18.67;;;1.80;99.90;;;;;;5104619;27;20039;-91
2023/01/26 07:13:33;;;;;;;68.63;18.33;;;2.00;99.90;;;;;;5117133;27;20359;-91
2023/01/26 07:16:00;;;;;;;69.63;18.27;;;2.10;99.90;;;;;;5101561;27;20050;-92
2023/01/26 07:18:25;;;;;;;69.90;17.20;;;2.00;99.90;;;;;;5099717;27;20058;-90
2023/01/26 07:20:51;;;;;;;74.68;20.75;;;2.00;99.90;;;;;;5105217;27;20063;-90
2023/01/26 07:23:17;;;;;;;74.70;18.67;;;2.00;99.90;;;;;;5104464;27;20039;-91
2023/01/26 07:25:43;;;;;;;82.57;18.50;;;1.90;99.90;;;;;;5102820;27;20164;-91
2023/01/26 07:28:09;;;;;;;83.75;19.63;;;1.90;99.90;;;;;;5101947;27;20130;-90
2023/01/26 07:30:35;;;;;;;75.88;18.70;;;2.10;99.90;;;;;;5103597;27;20307;-91
2023/01/26 07:33:04;;;;;;;73.65;19.08;;;2.10;99.90;;;;;;5116868;27;20050;-91
2023/01/26 07:35:30;;;;;;;81.10;19.23;;;2.10;99.90;;;;;;5105012;27;20146;-91
2023/01/26 07:37:57;;;;;;;85.88;20.58;;;2.20;99.90;;;;;;5094926;28;20143;-89
2023/01/26 07:40:23;;;;;;;122.43;20.48;;;2.20;99.90;;;;;;5100109;28;20035;-91
2023/01/26 07:42:48;;;;;;;91.70;20.45;;;2.20;99.90;;;;;;5082199;28;20325;-91
2023/01/26 07:45:16;;;;;;;91.70;20.17;;;2.10;99.90;;;;;;5079703;28;20535;-90
2023/01/26 07:47:43;;;;;;;139.70;22.20;;;2.40;99.90;;;;;;5098341;28;20065;-92
2023/01/26 07:50:10;;;;;;;129.68;21.38;;;2.30;99.90;;;;;;5079762;28;20058;-90
2023/01/26 07:52:37;;;;;;;167.50;22.92;;;2.50;99.90;;;;;;5078834;28;20036;-90
2023/01/26 07:55:03;;;;;;;189.20;23.92;;;2.40;99.90;;;;;;5084299;28;20181;-90
2023/01/26 07:57:29;;;;;;;212.48;24.42;;;2.60;99.90;;;;;;5078635;28;20043;-90
2023/01/26 07:59:55;;;;;;;311.08;28.08;;;2.70;99.90;;;;;;5096774;28;20046;-91
2023/01/26 08:02:20;;;;;;;272.48;28.17;;;2.80;99.90;;;;;;5100949;28;20031;-91
2023/01/26 08:04:49;;;;;;;201.32;27.15;;;2.60;99.90;;;;;;5090784;28;20499;-90
2023/01/26 08:07:18;;;;;;;275.60;27.98;;;3.00;99.90;;;;;;5081100;28;20047;-91
2023/01/26 08:09:43;;;;;;;222.48;25.60;;;2.90;99.90;;;;;;5080568;28;20047;-91
2023/01/26 08:12:09;;;;;;;420.95;33.17;;;3.00;99.90;;;;;;5095904;28;20039;-91
2023/01/26 08:14:34;;;;;;;338.20;28.67;;;2.90;99.90;;;;;;5079120;28;20040;-91
2023/01/26 08:17:01;;;;;;;362.55;31.95;;;2.80;99.90;;;;;;5081038;28;20043;-91
2023/01/26 08:19:27;;;;;;;153.63;21.75;;;2.90;99.90;;;;;;5084199;28;20607;-90
2023/01/26 08:21:53;;;;;;;139.93;21.13;;;2.80;99.90;;;;;;5080314;28;20039;-90
2023/01/26 08:24:19;;;;;;;144.00;20.63;;;3.10;99.90;;;;;;5081460;28;20115;-90
2023/01/26 08:26:44;;;;;;;83.72;15.95;;;3.00;99.90;;;;;;5099487;28;20100;-91
2023/01/26 08:29:11;;;;;;;82.70;17.02;;;3.30;99.90;;;;;;5079262;28;20063;-90
2023/01/26 08:31:37;;;;;;;78.85;15.95;;;3.30;99.90;;;;;;5085329;28;20093;-90
2023/01/26 08:34:03;;;;;;;67.10;14.50;;;3.50;99.90;;;;;;5082664;28;20035;-91
2023/01/26 08:36:29;;;;;;;81.80;14.70;;;3.80;99.90;;;;;;5080112;28;20040;-90
2023/01/26 08:38:55;;;;;;;79.65;15.82;;;3.80;99.90;;;;;;5078906;28;20106;-91
2023/01/26 08:41:21;;;;;;;73.90;14.40;;;3.80;99.90;;;;;;5079681;28;20487;-91
2023/01/26 08:43:47;;;;;;;77.88;14.25;;;3.90;99.90;;;;;;5080034;28;20043;-91
2023/01/26 08:46:13;;;;;;;69.57;13.18;;;4.00;99.90;;;;;;5078786;28;20039;-91
2023/01/26 08:48:39;;;;;;;59.47;11.98;;;4.10;99.90;;;;;;5095277;28;20497;-91
2023/01/26 08:51:06;;;;;;;64.68;12.88;;;4.10;99.90;;;;;;5082998;28;20044;-91
2023/01/26 08:53:34;;;;;;;61.72;12.82;;;4.30;99.90;;;;;;5100343;28;20115;-91
2023/01/26 08:56:01;;;;;;;56.22;12.88;;;4.40;99.90;;;;;;5078235;28;20107;-91
2023/01/26 08:58:28;;;;;;;62.55;11.55;;;4.60;99.90;;;;;;5073271;28;20039;-90
2023/01/26 09:00:54;;;;;;;60.75;12.85;;;4.60;99.90;;;;;;5081039;28;20035;-92
2023/01/26 09:03:20;;;;;;;60.85;12.30;;;4.70;99.90;;;;;;5082086;28;20123;-93
2023/01/26 09:05:46;;;;;;;62.92;12.07;;;4.70;99.90;;;;;;5080298;28;20229;-92
2023/01/26 09:08:12;;;;;;;63.65;11.52;;;4.90;99.90;;;;;;5073324;28;20050;-92
2023/01/26 09:10:43;;;;;;;64.80;12.43;;;5.00;99.90;;;;;;5095829;28;20039;-92
2023/01/26 09:13:09;;;;;;;74.72;11.77;;;5.00;99.90;;;;;;5077688;28;20104;-92
2023/01/26 09:15:37;;;;;;;47.90;10.68;;;5.00;99.90;;;;;;5081658;28;20031;-92
2023/01/26 09:18:02;;;;;;;68.90;11.80;;;5.10;99.90;;;;;;5078343;28;20031;-93
2023/01/26 09:20:28;;;;;;;47.08;9.68;;;5.30;99.90;;;;;;5075237;28;20047;-92
2023/01/26 09:22:54;;;;;;;55.10;11.02;;;5.40;99.90;;;;;;5081268;28;20035;-91
2023/01/26 09:25:19;;;;;;;42.70;9.25;;;5.30;99.90;;;;;;5076997;28;20314;-91
2023/01/26 09:27:45;;;;;;;54.63;9.48;;;5.50;99.90;;;;;;5080556;28;20649;-92
2023/01/26 09:30:11;;;;;;;48.33;11.02;;;5.50;99.90;;;;;;5079858;28;20077;-92
2023/01/26 09:32:37;;;;;;;53.47;9.40;;;5.60;99.90;;;;;;5091963;28;20394;-93
2023/01/26 09:35:03;;;;;;;49.83;9.70;;;5.70;99.90;;;;;;5096290;28;20044;-92
2023/01/26 09:37:29;;;;;;;45.55;8.02;;;5.80;99.90;;;;;;5080981;27;20035;-92
2023/01/26 09:39:55;;;;;;;48.38;8.82;;;5.90;99.90;;;;;;5083066;28;20055;-92
2023/01/26 09:42:21;;;;;;;41.28;8.68;;;6.00;99.90;;;;;;5078456;28;20035;-92
2023/01/26 09:45:02;;;;;;;39.25;7.97;;;6.10;99.90;;;;;;5078626;28;20108;-92
2023/01/26 09:47:40;;;;;;;33.85;7.05;;;6.20;99.90;;;;;;5097970;28;20044;-93
2023/01/26 09:50:21;;;;;;;41.92;6.78;;;6.20;99.90;;;;;;5092311;28;20048;-92
2023/01/26 09:52:51;;;;;;;45.30;6.50;;;6.40;99.90;;;;;;5095722;28;20062;-92
2023/01/26 09:55:20;;;;;;;37.30;7.10;;;6.50;99.90;;;;;;5091977;28;20035;-93
2023/01/26 09:57:58;;;;;;;38.78;7.90;;;6.60;99.90;;;;;;5081346;28;20142;-91
2023/01/26 10:00:31;;;;;;;35.22;7.95;;;6.90;99.90;;;;;;5094553;28;20502;-91
2023/01/26 10:03:21;;;;;;;35.38;6.80;;;7.00;99.90;;;;;;5079704;28;20118;-91
2023/01/26 10:05:57;;;;;;;36.75;6.68;;;7.00;99.90;;;;;;5082431;28;20047;-91
2023/01/26 10:08:23;;;;;;;33.50;5.85;;;6.90;99.90;;;;;;5091775;28;20138;-92
2023/01/26 10:11:00;;;;;;;37.80;7.07;;;7.00;99.90;;;;;;5097448;28;20050;-91
2023/01/26 10:13:28;;;;;;;34.35;6.40;;;7.10;99.90;;;;;;5080280;28;20551;-91
2023/01/26 10:16:00;;;;;;;30.98;5.65;;;7.20;99.90;;;;;;5080351;28;20034;-91
2023/01/26 10:18:33;;;;;;;37.25;7.90;;;7.30;99.90;;;;;;5075766;28;20130;-91
2023/01/26 10:21:02;;;;;;;41.67;7.00;;;7.10;99.90;;;;;;5080236;28;20051;-91
2023/01/26 10:23:32;;;;;;;41.22;5.95;;;7.30;99.90;;;;;;5094090;28;20447;-91
2023/01/26 10:26:10;;;;;;;33.97;5.85;;;7.30;99.90;;;;;;5070564;28;20063;-92
2023/01/26 10:28:36;;;;;;;36.00;5.18;;;7.40;99.90;;;;;;5095092;28;20035;-91
2023/01/26 10:31:05;;;;;;;38.90;6.18;;;7.40;99.90;;;;;;5087310;28;20035;-91
2023/01/26 10:33:33;;;;;;;27.08;4.72;;;7.50;99.90;;;;;;5086208;28;20035;-92
2023/01/26 10:36:00;;;;;;;30.08;5.45;;;7.70;99.90;;;;;;5098899;28;20149;-91
2023/01/26 10:38:32;;;;;;;29.10;5.22;;;7.60;99.90;;;;;;5086514;27;20047;-91
2023/01/26 10:41:18;;;;;;;31.42;5.47;;;7.40;99.90;;;;;;5099561;27;20043;-92
2023/01/26 10:43:50;;;;;;;28.08;5.47;;;7.40;99.90;;;;;;5103568;27;20067;-92
2023/01/26 10:46:37;;;;;;;30.30;5.22;;;7.30;99.90;;;;;;5108851;27;20040;-91
2023/01/26 10:49:15;;;;;;;35.65;4.63;;;7.40;99.90;;;;;;5115744;27;20543;-91
2023/01/26 10:51:44;;;;;;;30.17;5.60;;;7.50;99.90;;;;;;5114018;27;20506;-91
2023/01/26 10:54:14;;;;;;;36.22;5.10;;;7.60;99.90;;;;;;5121159;27;20051;-91
2023/01/26 10:56:54;;;;;;;22.48;4.88;;;7.70;99.90;;;;;;5100841;27;20051;-92
2023/01/26 10:59:30;;;;;;;28.48;3.97;;;7.70;99.90;;;;;;5116313;27;20031;-92
2023/01/26 11:02:20;;;;;;;31.02;4.82;;;7.70;99.90;;;;;;5101475;27;20046;-92
2023/01/26 11:05:07;;;;;;;20.08;3.55;;;7.60;99.90;;;;;;5083666;27;20054;-91
2023/01/26 11:07:37;;;;;;;27.20;4.38;;;7.60;99.90;;;;;;5102108;27;20046;-91
2023/01/26 11:10:22;;;;;;;24.88;4.32;;;7.80;99.90;;;;;;5104985;27;20042;-91
2023/01/26 11:12:48;;;;;;;16.70;3.60;;;7.90;99.90;;;;;;5101139;27;20150;-91
2023/01/26 11:15:28;;;;;;;24.77;4.95;;;7.90;99.90;;;;;;5100601;27;20054;-91
2023/01/26 11:18:03;;;;;;;24.38;4.00;;;8.00;99.90;;;;;;5111892;27;20129;-91
2023/01/26 11:20:59;;;;;;;25.25;4.20;;;7.90;99.90;;;;;;5100033;27;20580;-91
2023/01/26 11:23:34;;;;;;;;;;;7.70;99.90;;;;;;5103735;27;20112;-92
2023/01/26 11:26:06;;;;;;;17.27;3.58;;;7.70;99.90;;;;;;5102059;27;20413;-90
2023/01/26 11:28:59;;;;;;;19.42;3.72;;;7.50;99.90;;;;;;5100412;27;20085;-92
2023/01/26 11:31:43;;;;;;;22.92;3.80;;;7.40;99.90;;;;;;5109618;27;20059;-92
2023/01/26 11:34:15;;;;;;;17.35;4.10;;;7.60;99.90;;;;;;5113130;27;20092;-92
2023/01/26 11:37:24;;;;;;;19.73;4.13;;;7.60;99.90;;;;;;5104874;27;20058;-91
2023/01/26 11:40:10;;;;;;;25.42;3.92;;;7.70;99.90;;;;;;5009819;28;20050;-92
2023/01/26 11:42:48;;;;;;;23.48;3.65;;;7.90;99.90;;;;;;5079901;28;20043;-92
2023/01/26 11:45:26;;;;;;;20.83;4.30;;;7.80;99.90;;;;;;5088801;27;20050;-92
2023/01/26 11:48:23;;;;;;;21.02;3.38;;;7.90;99.90;;;;;;5089798;28;20088;-91
2023/01/26 11:51:05;;;;;;;15.73;3.50;;;7.90;99.90;;;;;;5093461;28;20082;-92
2023/01/26 11:54:02;;;;;;;14.80;2.80;;;8.10;99.90;;;;;;5088507;27;20058;-92
2023/01/26 11:56:40;;;;;;;12.55;3.10;;;8.30;99.90;;;;;;5086053;28;20235;-90
2023/01/26 11:59:30;;;;;;;15.20;2.88;;;8.40;99.90;;;;;;5107510;27;20040;-92
2023/01/26 12:02:23;;;;;;;14.68;2.95;;;8.30;99.90;;;;;;5086340;27;20494;-91
2023/01/26 12:04:54;;;;;;;11.73;2.50;;;8.00;99.90;;;;;;5101818;27;20043;-91
2023/01/26 12:07:29;;;;;;;15.38;3.17;;;7.90;99.90;;;;;;5085063;27;20490;-91
2023/01/26 12:09:55;;;;;;;;;;;7.70;99.90;;;;;;5109472;27;20498;-92
2023/01/26 12:12:41;;;;;;;17.10;3.00;;;7.60;99.90;;;;;;5103790;27;19924;-91
2023/01/26 12:15:42;;;;;;;18.05;3.47;;;7.70;99.90;;;;;;5104300;27;20047;-93
2023/01/26 12:18:08;;;;;;;16.00;2.83;;;7.60;99.90;;;;;;5048912;27;20056;-92
2023/01/26 12:20:57;;;;;;;10.80;2.40;;;7.60;99.90;;;;;;5089879;27;20097;-92
2023/01/26 12:23:24;;;;;;;17.92;3.13;;;7.70;99.90;;;;;;5090545;27;20084;-92
2023/01/26 12:25:57;;;;;;;17.88;3.38;;;7.70;99.90;;;;;;5084466;28;20044;-92
2023/01/26 12:28:38;;;;;;;14.75;2.60;;;7.80;99.90;;;;;;5087799;28;20545;-92
2023/01/26 12:31:21;;;;;;;13.80;2.70;;;7.90;99.90;;;;;;5086821;27;20055;-92
2023/01/26 12:33:50;;;;;;;15.43;2.85;;;8.00;99.90;;;;;;5091558;27;20160;-92
2023/01/26 12:36:46;;;;;;;21.00;3.42;;;8.00;99.90;;;;;;5090188;28;20043;-91
2023/01/26 12:39:35;;;;;;;19.60;3.10;;;8.00;99.90;;;;;;5091548;28;20214;-91
2023/01/26 12:42:27;;;;;;;15.75;2.90;;;8.10;99.90;;;;;;5104882;27;20048;-91
2023/01/26 12:44:59;;;;;;;20.02;3.58;;;8.20;99.90;;;;;;5088190;28;20392;-92
2023/01/26 12:47:37;;;;;;;17.63;3.25;;;8.00;99.90;;;;;;5103872;27;20092;-92
2023/01/26 12:50:26;;;;;;;17.20;3.30;;;8.00;99.90;;;;;;5090920;27;20103;-91
2023/01/26 12:52:55;;;;;;;13.95;3.00;;;7.90;99.90;;;;;;5085255;28;20043;-92
2023/01/26 12:55:41;;;;;;;17.55;2.70;;;7.90;99.90;;;;;;5106025;27;20043;-91
2023/01/26 12:58:16;;;;;;;16.55;2.75;;;8.00;99.90;;;;;;5084604;27;20463;-91
2023/01/26 13:00:52;;;;;;;12.18;2.97;;;7.90;99.90;;;;;;5087343;28;20052;-91
2023/01/26 13:03:27;;;;;;;15.25;3.28;;;7.90;99.90;;;;;;5093676;27;20130;-91
2023/01/26 13:06:00;;;;;;;14.00;3.33;;;8.00;99.90;;;;;;5106678;27;20039;-91
2023/01/26 13:08:40;;;;;;;14.77;2.55;;;8.00;99.90;;;;;;5091012;27;20145;-91
2023/01/26 13:11:07;;;;;;;14.27;2.58;;;7.90;99.90;;;;;;5087577;27;20036;-92
2023/01/26 13:13:54;;;;;;;17.50;2.40;;;8.00;99.90;;;;;;5088407;28;20024;-91
2023/01/26 13:16:23;;;;;;;11.18;2.20;;;7.90;99.90;;;;;;5106252;27;20116;-90
2023/01/26 13:18:50;;;;;;;15.85;2.90;;;7.90;99.90;;;;;;5087096;28;20036;-91
2023/01/26 13:21:42;;;;;;;12.77;2.10;;;8.00;99.90;;;;;;5089070;28;20096;-91
2023/01/26 13:24:17;;;;;;;14.68;2.47;;;8.00;99.90;;;;;;5090589;28;20039;-91
2023/01/26 13:26:47;;;;;;;10.65;2.05;;;7.90;99.90;;;;;;5083290;28;20104;-92
2023/01/26 13:29:26;;;;;;;13.07;2.17;;;7.90;99.90;;;;;;5087381;28;20122;-92
2023/01/26 13:31:53;;;;;;;10.57;1.95;;;7.90;99.90;;;;;;5088165;28;20036;-91
2023/01/26 13:34:27;;;;;;;11.90;1.88;;;7.90;99.90;;;;;;5088348;28;20050;-91
2023/01/26 13:36:59;;;;;;;9.50;1.73;;;7.80;99.90;;;;;;5105655;27;20039;-91
2023/01/26 13:39:33;;;;;;;7.18;2.15;;;7.70;99.90;;;;;;5098257;28;20055;-91
2023/01/26 13:41:59;;;;;;;5.93;1.60;;;7.70;99.90;;;;;;5080420;28;20035;-92